Time;durP1;ratioP1;P1;durP2;ratioP2;P2;SDS_P1;SDS_P2;PMS_P1;PMS_P2;Temp;Humidity;BMP_temperature;BMP_pressure;BME280_temperature;BME280_humidity;BME280_pressure;Samples;Min_cycle;Max_cycle;Signal;HPM_P1;HPM_P2
2023/01/14 00:01:21;;;;;;;17.67;3.47;;;;;;;;;;4945591;28;20316;-60
2023/01/14 00:03:49;;;;;;;15.43;3.10;;;;;;;;;;4950231;28;20293;-60
2023/01/14 00:06:17;;;;;;;12.33;2.67;;;;;;;;;;4949073;29;20220;-60
2023/01/14 00:08:45;;;;;;;11.40;3.00;;;;;;;;;;4952238;29;20233;-60
2023/01/14 00:11:13;;;;;;;14.10;3.03;;;;;;;;;;4952510;29;20199;-60
2023/01/14 00:13:41;;;;;;;12.00;3.37;;;;;;;;;;4947257;29;20207;-60
2023/01/14 00:16:09;;;;;;;17.13;3.30;;;;;;;;;;4947574;29;20207;-60
2023/01/14 00:18:37;;;;;;;9.03;2.40;;;;;;;;;;4950270;29;20205;-60
2023/01/14 00:21:06;;;;;;;13.73;2.87;;;;;;;;;;4951815;29;20203;-60
2023/01/14 00:23:34;;;;;;;11.00;2.53;;;;;;;;;;4949580;29;20239;-60
2023/01/14 00:26:02;;;;;;;14.77;2.90;;;;;;;;;;4953612;23;20202;-60
2023/01/14 00:28:30;;;;;;;13.10;3.00;;;;;;;;;;4970196;28;20230;-60
2023/01/14 00:31:02;;;;;;;10.10;2.70;;;;;;;;;;4977614;28;20202;-60
2023/01/14 00:33:29;;;;;;;10.00;2.40;;;;;;;;;;4968396;28;20202;-59
2023/01/14 00:35:58;;;;;;;10.23;2.67;;;;;;;;;;4971529;28;20237;-61
2023/01/14 00:38:25;;;;;;;8.93;2.80;;;;;;;;;;4970446;28;20198;-59
2023/01/14 00:41:00;;;;;;;10.33;2.27;;;;;;;;;;4967038;28;20206;-59
2023/01/14 00:43:27;;;;;;;7.60;3.03;;;;;;;;;;4970540;28;20485;-60
2023/01/14 00:45:55;;;;;;;11.13;2.77;;;;;;;;;;4969439;28;20226;-60
2023/01/14 00:48:22;;;;;;;9.83;2.53;;;;;;;;;;4969461;28;20206;-60
2023/01/14 00:50:49;;;;;;;12.00;2.50;;;;;;;;;;4972384;28;20198;-60
2023/01/14 00:53:17;;;;;;;11.37;2.57;;;;;;;;;;4970641;28;20206;-61
2023/01/14 00:55:45;;;;;;;10.33;2.57;;;;;;;;;;4974997;28;20302;-58
2023/01/14 00:58:12;;;;;;;8.10;2.50;;;;;;;;;;4973885;28;20220;-61
2023/01/14 01:00:39;;;;;;;17.97;3.13;;;;;;;;;;4970248;28;20209;-60
2023/01/14 01:03:06;;;;;;;12.03;3.07;;;;;;;;;;4971788;28;20362;-60
2023/01/14 01:05:35;;;;;;;12.30;2.87;;;;;;;;;;4973840;28;20198;-60
2023/01/14 01:08:02;;;;;;;9.57;2.60;;;;;;;;;;4974230;28;20214;-61
2023/01/14 01:10:31;;;;;;;14.40;3.20;;;;;;;;;;4971813;28;20207;-59
2023/01/14 01:12:58;;;;;;;9.77;2.27;;;;;;;;;;4973563;28;20205;-61
2023/01/14 01:15:25;;;;;;;9.83;3.00;;;;;;;;;;4972349;28;20230;-61
2023/01/14 01:17:52;;;;;;;12.97;2.70;;;;;;;;;;4970620;28;20210;-61
2023/01/14 01:20:19;;;;;;;13.90;3.07;;;;;;;;;;4971927;28;20209;-61
2023/01/14 01:22:46;;;;;;;14.27;3.20;;;;;;;;;;4968952;28;20217;-61
2023/01/14 01:25:13;;;;;;;13.47;2.63;;;;;;;;;;4967935;28;20209;-60
2023/01/14 01:27:42;;;;;;;13.23;2.70;;;;;;;;;;4975537;28;20238;-60
2023/01/14 01:30:10;;;;;;;12.87;3.30;;;;;;;;;;4968688;28;20214;-60
2023/01/14 01:32:37;;;;;;;14.43;3.23;;;;;;;;;;4973481;28;20202;-59
2023/01/14 01:35:04;;;;;;;11.73;2.90;;;;;;;;;;4971284;28;20218;-59
2023/01/14 01:37:31;;;;;;;12.33;3.30;;;;;;;;;;4972479;28;20214;-61
2023/01/14 01:39:59;;;;;;;13.37;2.83;;;;;;;;;;4970720;28;20222;-61
2023/01/14 01:42:28;;;;;;;13.13;3.17;;;;;;;;;;4971113;28;20198;-60
2023/01/14 01:45:14;;;;;;;15.03;3.10;;;;;;;;;;4967056;28;20206;-60
2023/01/14 01:47:42;;;;;;;14.97;2.67;;;;;;;;;;4968303;28;20206;-60
2023/01/14 01:50:10;;;;;;;11.27;2.83;;;;;;;;;;4972102;28;20397;-61
2023/01/14 01:52:37;;;;;;;17.43;3.27;;;;;;;;;;4972461;28;20202;-60
2023/01/14 01:55:06;;;;;;;10.00;2.90;;;;;;;;;;4973691;28;20213;-59
2023/01/14 01:57:33;;;;;;;8.80;2.70;;;;;;;;;;4969689;28;20218;-61
2023/01/14 02:00:03;;;;;;;14.90;3.10;;;;;;;;;;4972699;28;20210;-61
2023/01/14 02:02:30;;;;;;;11.37;2.60;;;;;;;;;;4971065;28;20217;-61
2023/01/14 02:04:59;;;;;;;13.77;2.87;;;;;;;;;;4972394;28;20199;-61
2023/01/14 02:07:28;;;;;;;13.33;3.10;;;;;;;;;;4969697;28;20206;-60
2023/01/14 02:09:56;;;;;;;14.83;2.57;;;;;;;;;;4969557;28;20225;-58
2023/01/14 02:12:37;;;;;;;11.87;3.40;;;;;;;;;;4966116;28;20206;-61
2023/01/14 02:15:15;;;;;;;12.03;2.87;;;;;;;;;;4972501;28;20229;-61
2023/01/14 02:17:46;;;;;;;11.17;2.80;;;;;;;;;;4973766;28;20213;-60
2023/01/14 02:20:18;;;;;;;12.37;2.57;;;;;;;;;;4970599;28;20205;-60
2023/01/14 02:22:59;;;;;;;14.23;3.20;;;;;;;;;;4972869;28;20268;-61
2023/01/14 02:25:42;;;;;;;13.00;3.10;;;;;;;;;;4970606;28;20211;-61
2023/01/14 02:28:18;;;;;;;11.83;2.40;;;;;;;;;;4972842;28;20249;-60
2023/01/14 02:30:50;;;;;;;13.83;3.33;;;;;;;;;;4968057;28;20206;-61
2023/01/14 02:33:24;;;;;;;12.27;2.87;;;;;;;;;;4969905;28;20321;-61
2023/01/14 02:35:53;;;;;;;10.13;2.43;;;;;;;;;;4970736;28;20224;-61
2023/01/14 02:38:28;;;;;;;12.87;2.93;;;;;;;;;;4971709;28;20212;-61
2023/01/14 02:40:59;;;;;;;11.23;2.80;;;;;;;;;;4970479;28;20205;-60
2023/01/14 02:46:18;;;;;;;14.03;3.03;;;;;;;;;;4972232;28;20196;-59
2023/01/14 02:48:46;;;;;;;13.77;3.23;;;;;;;;;;4968433;28;20210;-60
2023/01/14 02:51:14;;;;;;;9.67;2.70;;;;;;;;;;4967474;28;20206;-59
2023/01/14 02:53:41;;;;;;;17.10;3.50;;;;;;;;;;4969136;28;20214;-61
2023/01/14 02:56:10;;;;;;;15.87;3.03;;;;;;;;;;4965175;28;20218;-60
2023/01/14 02:58:43;;;;;;;16.43;3.10;;;;;;;;;;4971900;28;20209;-60
2023/01/14 03:01:21;;;;;;;17.00;2.90;;;;;;;;;;4971596;28;20210;-61
2023/01/14 03:03:55;;;;;;;12.33;3.40;;;;;;;;;;4966682;28;20207;-60
2023/01/14 03:06:27;;;;;;;16.60;3.10;;;;;;;;;;4970183;28;20197;-60
2023/01/14 03:08:57;;;;;;;13.03;3.30;;;;;;;;;;4972058;28;20217;-60
2023/01/14 03:11:25;;;;;;;12.07;3.33;;;;;;;;;;4972206;28;20517;-60
2023/01/14 03:13:54;;;;;;;12.23;2.90;;;;;;;;;;4972231;28;20210;-59
2023/01/14 03:16:26;;;;;;;13.80;3.13;;;;;;;;;;4971110;28;20226;-60
2023/01/14 03:18:57;;;;;;;12.50;3.23;;;;;;;;;;4973082;28;20206;-61
2023/01/14 03:21:25;;;;;;;16.63;3.27;;;;;;;;;;4972910;28;20202;-60
2023/01/14 03:23:59;;;;;;;12.93;3.10;;;;;;;;;;4972130;28;20207;-61
2023/01/14 03:26:29;;;;;;;15.13;3.33;;;;;;;;;;4968289;28;20233;-60
2023/01/14 03:28:57;;;;;;;12.47;3.40;;;;;;;;;;4964935;28;20230;-60
2023/01/14 03:31:27;;;;;;;12.10;2.70;;;;;;;;;;4968329;28;20210;-60
2023/01/14 03:33:57;;;;;;;13.37;3.00;;;;;;;;;;4968995;28;20205;-61
2023/01/14 03:36:25;;;;;;;14.13;3.17;;;;;;;;;;4970076;28;20222;-60
2023/01/14 03:38:53;;;;;;;16.50;3.90;;;;;;;;;;4970394;28;20206;-59
2023/01/14 03:44:04;;;;;;;9.87;2.83;;;;;;;;;;4970157;28;20212;-61
2023/01/14 03:46:33;;;;;;;12.80;3.27;;;;;;;;;;4967259;28;20210;-60
2023/01/14 03:49:00;;;;;;;14.83;2.83;;;;;;;;;;4971262;28;20210;-60
2023/01/14 03:51:32;;;;;;;13.20;3.00;;;;;;;;;;4969214;28;20206;-61
2023/01/14 03:54:03;;;;;;;16.77;2.90;;;;;;;;;;4971462;28;20206;-61
2023/01/14 03:56:35;;;;;;;17.80;3.33;;;;;;;;;;4968447;28;20228;-60
2023/01/14 03:59:05;;;;;;;17.53;2.90;;;;;;;;;;4968006;28;20198;-60
2023/01/14 04:01:36;;;;;;;11.63;2.80;;;;;;;;;;4971786;28;20214;-61
2023/01/14 04:04:04;;;;;;;12.90;3.30;;;;;;;;;;4972095;28;20210;-61
2023/01/14 04:06:31;;;;;;;14.53;3.27;;;;;;;;;;4971538;28;20202;-61
2023/01/14 04:08:58;;;;;;;15.53;3.40;;;;;;;;;;4970932;28;20266;-61
2023/01/14 04:11:25;;;;;;;16.93;3.10;;;;;;;;;;4971248;28;20202;-60
2023/01/14 04:16:39;;;;;;;19.60;3.97;;;;;;;;;;4964271;28;20253;-59
2023/01/14 04:19:06;;;;;;;14.50;3.00;;;;;;;;;;4969648;28;20214;-60
2023/01/14 04:21:33;;;;;;;11.53;3.03;;;;;;;;;;4971055;28;20206;-61
2023/01/14 04:24:00;;;;;;;12.80;2.83;;;;;;;;;;4968593;28;20228;-60
2023/01/14 04:26:28;;;;;;;15.50;3.27;;;;;;;;;;4970043;28;20226;-58
2023/01/14 04:28:55;;;;;;;12.30;2.73;;;;;;;;;;4968158;28;20202;-59
2023/01/14 04:31:22;;;;;;;14.60;3.47;;;;;;;;;;4972206;28;20201;-61
2023/01/14 04:33:52;;;;;;;16.73;3.47;;;;;;;;;;4971417;28;20202;-61
2023/01/14 04:36:19;;;;;;;12.70;2.80;;;;;;;;;;4973270;28;20229;-59
2023/01/14 04:38:46;;;;;;;14.47;3.37;;;;;;;;;;4970184;28;20207;-61
2023/01/14 04:43:54;;;;;;;15.00;3.40;;;;;;;;;;4973566;28;20201;-60
2023/01/14 04:46:21;;;;;;;13.10;3.13;;;;;;;;;;4973306;28;20214;-61
2023/01/14 04:48:48;;;;;;;14.27;3.60;;;;;;;;;;4975152;28;20214;-61
2023/01/14 04:51:17;;;;;;;13.97;3.33;;;;;;;;;;4971948;28;20202;-61
2023/01/14 04:53:44;;;;;;;12.00;2.83;;;;;;;;;;4973008;28;20217;-59
2023/01/14 04:56:11;;;;;;;11.13;3.37;;;;;;;;;;4973448;28;20233;-61
2023/01/14 04:58:38;;;;;;;20.57;3.37;;;;;;;;;;4975290;28;20202;-61
2023/01/14 05:01:05;;;;;;;14.63;3.07;;;;;;;;;;4968598;28;20202;-61
2023/01/14 05:03:32;;;;;;;11.70;2.53;;;;;;;;;;4968978;28;20210;-58
2023/01/14 05:06:00;;;;;;;15.70;2.90;;;;;;;;;;4969806;28;20208;-59
2023/01/14 05:08:28;;;;;;;15.07;2.90;;;;;;;;;;4973857;28;20208;-60
2023/01/14 05:10:55;;;;;;;13.23;2.90;;;;;;;;;;4971267;28;20206;-60
2023/01/14 05:13:22;;;;;;;11.10;2.43;;;;;;;;;;4971764;28;20217;-59
2023/01/14 05:15:49;;;;;;;16.67;3.30;;;;;;;;;;4972896;28;20222;-61
2023/01/14 05:18:17;;;;;;;9.27;2.50;;;;;;;;;;4974054;28;20206;-60
2023/01/14 05:20:45;;;;;;;12.40;2.40;;;;;;;;;;4973574;28;20216;-60
2023/01/14 05:23:13;;;;;;;15.20;2.73;;;;;;;;;;4968403;28;20206;-61
2023/01/14 05:25:42;;;;;;;10.67;2.60;;;;;;;;;;4971793;28;20207;-61
2023/01/14 05:28:11;;;;;;;12.67;3.30;;;;;;;;;;4972334;28;20247;-59
2023/01/14 05:30:38;;;;;;;12.77;3.00;;;;;;;;;;4970779;28;20211;-60
2023/01/14 05:33:05;;;;;;;12.10;2.80;;;;;;;;;;4972648;28;20217;-58
2023/01/14 05:35:32;;;;;;;14.40;3.10;;;;;;;;;;4973077;28;20237;-61
2023/01/14 05:38:00;;;;;;;14.67;3.10;;;;;;;;;;4969355;28;20284;-60
2023/01/14 05:40:27;;;;;;;17.17;3.50;;;;;;;;;;4970006;28;20208;-61
2023/01/14 05:45:49;;;;;;;13.60;3.03;;;;;;;;;;4949309;28;20215;-59
2023/01/14 05:48:17;;;;;;;16.23;2.80;;;;;;;;;;4970384;28;20210;-60
2023/01/14 05:50:44;;;;;;;13.40;2.47;;;;;;;;;;4973814;28;20221;-60
2023/01/14 05:53:11;;;;;;;14.83;3.10;;;;;;;;;;4973522;28;20202;-61
2023/01/14 05:55:39;;;;;;;14.97;3.43;;;;;;;;;;4970807;28;20214;-60
2023/01/14 05:58:08;;;;;;;12.57;3.53;;;;;;;;;;4970793;28;20198;-61
2023/01/14 06:06:22;;;;;;;9.83;2.77;;;;;;;;;;4965284;28;20222;-60
2023/01/14 06:08:49;;;;;;;11.20;3.20;;;;;;;;;;4973486;28;20202;-61
2023/01/14 06:11:17;;;;;;;11.30;3.00;;;;;;;;;;4970123;28;20209;-61
2023/01/14 06:13:45;;;;;;;15.73;3.03;;;;;;;;;;4969691;28;20213;-61
2023/01/14 06:16:12;;;;;;;12.70;3.00;;;;;;;;;;4969596;28;20222;-59
2023/01/14 06:18:42;;;;;;;13.17;3.00;;;;;;;;;;4972051;28;20207;-61
2023/01/14 06:21:10;;;;;;;16.50;3.27;;;;;;;;;;4969024;28;20210;-60
2023/01/14 06:23:37;;;;;;;21.13;4.87;;;;;;;;;;4967609;28;20202;-61
2023/01/14 06:26:04;;;;;;;12.33;2.70;;;;;;;;;;4968913;28;20199;-61
2023/01/14 06:28:31;;;;;;;11.10;2.90;;;;;;;;;;4969528;28;20202;-61
2023/01/14 06:30:59;;;;;;;16.20;3.03;;;;;;;;;;4975912;28;20199;-61
2023/01/14 06:33:27;;;;;;;15.57;3.10;;;;;;;;;;4971878;28;20391;-61
2023/01/14 06:35:55;;;;;;;17.77;3.30;;;;;;;;;;4970785;28;20229;-61
2023/01/14 06:38:22;;;;;;;12.93;2.70;;;;;;;;;;4972224;28;20206;-62
2023/01/14 06:40:50;;;;;;;14.67;3.10;;;;;;;;;;4972059;28;20202;-60
2023/01/14 06:43:17;;;;;;;15.23;2.80;;;;;;;;;;4968691;28;20207;-61
2023/01/14 06:45:44;;;;;;;14.07;3.00;;;;;;;;;;4967540;28;20342;-59
2023/01/14 06:48:12;;;;;;;14.27;2.67;;;;;;;;;;4968545;28;20210;-60
2023/01/14 06:50:39;;;;;;;14.13;3.13;;;;;;;;;;4967652;28;20202;-60
2023/01/14 06:53:07;;;;;;;15.33;2.87;;;;;;;;;;4971884;28;20206;-59
2023/01/14 06:55:34;;;;;;;17.97;3.10;;;;;;;;;;4969730;28;20206;-60
2023/01/14 06:58:01;;;;;;;11.13;2.80;;;;;;;;;;4970044;28;20194;-60
2023/01/14 07:00:28;;;;;;;11.23;2.57;;;;;;;;;;4970632;28;20203;-61
2023/01/14 07:02:55;;;;;;;13.60;2.73;;;;;;;;;;4966439;28;20210;-61
2023/01/14 07:05:24;;;;;;;8.40;2.30;;;;;;;;;;4969650;28;20201;-61
2023/01/14 07:07:51;;;;;;;9.50;1.90;;;;;;;;;;4970197;28;20229;-59
2023/01/14 07:10:19;;;;;;;12.13;2.63;;;;;;;;;;4965625;28;20352;-61
2023/01/14 07:12:47;;;;;;;13.40;2.50;;;;;;;;;;4970853;28;20270;-61
2023/01/14 07:15:14;;;;;;;9.40;2.20;;;;;;;;;;4968169;28;20466;-60
2023/01/14 07:17:41;;;;;;;8.63;1.97;;;;;;;;;;4971696;28;20324;-61
2023/01/14 07:20:09;;;;;;;9.43;2.20;;;;;;;;;;4972259;28;20206;-60
2023/01/14 07:22:38;;;;;;;7.20;1.90;;;;;;;;;;4967913;28;20290;-61
2023/01/14 07:25:06;;;;;;;10.77;2.23;;;;;;;;;;4970492;28;20205;-61
2023/01/14 07:27:33;;;;;;;7.77;2.00;;;;;;;;;;4971151;28;20230;-61
2023/01/14 07:30:00;;;;;;;15.23;2.27;;;;;;;;;;4968146;28;20201;-59
2023/01/14 07:32:28;;;;;;;10.20;2.03;;;;;;;;;;4965708;28;20206;-57
2023/01/14 07:34:55;;;;;;;9.77;2.00;;;;;;;;;;4963867;28;20206;-60
2023/01/14 07:37:22;;;;;;;6.60;1.90;;;;;;;;;;4962694;28;20253;-60
2023/01/14 07:39:50;;;;;;;9.60;2.10;;;;;;;;;;4967224;28;20217;-61
2023/01/14 07:42:18;;;;;;;7.20;1.70;;;;;;;;;;4966676;28;20206;-60
2023/01/14 07:44:45;;;;;;;9.43;1.67;;;;;;;;;;4968340;28;20265;-60
2023/01/14 07:47:13;;;;;;;4.83;1.80;;;;;;;;;;4970292;28;20209;-60
2023/01/14 07:49:40;;;;;;;6.03;1.87;;;;;;;;;;4970527;28;20198;-61
2023/01/14 07:52:07;;;;;;;6.00;2.00;;;;;;;;;;4971611;28;20222;-61
2023/01/14 07:54:35;;;;;;;5.67;1.20;;;;;;;;;;4966811;28;20206;-60
2023/01/14 07:57:03;;;;;;;5.70;1.57;;;;;;;;;;4965644;28;20236;-61
2023/01/14 07:59:30;;;;;;;5.33;1.90;;;;;;;;;;4965329;28;20214;-61
2023/01/14 08:01:57;;;;;;;5.60;1.80;;;;;;;;;;4964854;28;20289;-59
2023/01/14 08:04:25;;;;;;;8.80;2.00;;;;;;;;;;4966070;28;20206;-60
2023/01/14 08:06:52;;;;;;;4.77;1.90;;;;;;;;;;4966818;28;20194;-60
2023/01/14 08:09:19;;;;;;;10.30;3.07;;;;;;;;;;4964897;28;20205;-61
2023/01/14 08:11:46;;;;;;;5.07;1.77;;;;;;;;;;4964144;28;20209;-59
2023/01/14 08:14:15;;;;;;;3.03;1.80;;;;;;;;;;4964530;28;20308;-60
2023/01/14 08:16:42;;;;;;;7.23;2.87;;;;;;;;;;4965499;28;20236;-58
2023/01/14 08:19:12;;;;;;;5.70;2.30;;;;;;;;;;4965817;28;20230;-59
2023/01/14 08:21:39;;;;;;;5.40;2.20;;;;;;;;;;4966443;28;20294;-60
2023/01/14 08:24:06;;;;;;;5.27;2.10;;;;;;;;;;4964120;28;20206;-60
2023/01/14 08:26:34;;;;;;;8.73;2.47;;;;;;;;;;4963352;28;20245;-60
2023/01/14 08:29:01;;;;;;;7.87;2.00;;;;;;;;;;4963543;28;20213;-61
2023/01/14 08:31:29;;;;;;;4.87;2.10;;;;;;;;;;4963366;28;20210;-60
2023/01/14 08:33:57;;;;;;;9.50;2.00;;;;;;;;;;4964636;28;20221;-61
2023/01/14 08:36:24;;;;;;;9.80;2.23;;;;;;;;;;4964530;28;20555;-59
2023/01/14 08:38:53;;;;;;;12.57;2.73;;;;;;;;;;4969738;28;20207;-60
2023/01/14 08:41:20;;;;;;;12.00;2.23;;;;;;;;;;4968643;28;20202;-58
2023/01/14 08:43:48;;;;;;;10.13;2.10;;;;;;;;;;4969290;28;20198;-62
2023/01/14 08:46:15;;;;;;;9.03;1.77;;;;;;;;;;4966730;28;20543;-61
2023/01/14 08:48:44;;;;;;;10.33;2.20;;;;;;;;;;4968770;28;20207;-60
2023/01/14 08:51:12;;;;;;;7.67;1.63;;;;;;;;;;4966661;28;20210;-59
2023/01/14 08:53:40;;;;;;;6.63;1.93;;;;;;;;;;4965419;28;20217;-61
2023/01/14 08:56:08;;;;;;;10.57;2.37;;;;;;;;;;4969371;28;20206;-61
2023/01/14 08:58:35;;;;;;;6.70;2.00;;;;;;;;;;4968802;28;20230;-62
2023/01/14 09:01:03;;;;;;;7.83;2.30;;;;;;;;;;4968632;28;20249;-61
2023/01/14 09:03:32;;;;;;;4.70;1.60;;;;;;;;;;4968785;28;20218;-61
2023/01/14 09:06:01;;;;;;;6.40;1.60;;;;;;;;;;4969925;28;20212;-61
2023/01/14 09:19:30;;;;;;;6.67;1.90;;;;;;;;;;4972845;28;20210;-59
2023/01/14 09:21:59;;;;;;;9.00;1.97;;;;;;;;;;4973980;28;20304;-59
2023/01/14 09:24:26;;;;;;;11.60;1.97;;;;;;;;;;4973687;28;20213;-62
2023/01/14 09:26:53;;;;;;;5.50;1.70;;;;;;;;;;4972480;28;20242;-62
2023/01/14 09:29:20;;;;;;;6.13;1.60;;;;;;;;;;4971855;28;20199;-61
2023/01/14 09:31:47;;;;;;;9.97;2.23;;;;;;;;;;4971065;28;20213;-62
2023/01/14 09:34:15;;;;;;;6.67;2.00;;;;;;;;;;4973465;28;20210;-62
2023/01/14 09:36:42;;;;;;;5.10;1.53;;;;;;;;;;4971576;28;20210;-61
2023/01/14 09:39:11;;;;;;;5.80;2.00;;;;;;;;;;4973334;28;20305;-61
2023/01/14 09:41:41;;;;;;;6.43;2.00;;;;;;;;;;4970954;28;20345;-62
2023/01/14 09:44:09;;;;;;;8.70;2.30;;;;;;;;;;4973923;28;20203;-61
2023/01/14 09:46:37;;;;;;;8.40;2.30;;;;;;;;;;4973125;28;20207;-61
2023/01/14 09:49:05;;;;;;;7.83;2.60;;;;;;;;;;4971631;28;20232;-60
2023/01/14 09:51:41;;;;;;;4.27;1.80;;;;;;;;;;4971691;28;20253;-63
2023/01/14 09:54:15;;;;;;;5.97;2.37;;;;;;;;;;4971372;28;20206;-59
2023/01/14 09:56:45;;;;;;;5.30;2.03;;;;;;;;;;4972957;28;20213;-59
2023/01/14 09:59:15;;;;;;;7.77;1.70;;;;;;;;;;4974120;28;20206;-57
2023/01/14 10:01:48;;;;;;;8.30;1.70;;;;;;;;;;4972385;28;20230;-60
2023/01/14 10:04:25;;;;;;;6.43;1.90;;;;;;;;;;4972769;28;20210;-60
2023/01/14 10:06:54;;;;;;;8.13;2.13;;;;;;;;;;4974034;28;20206;-61
2023/01/14 10:09:25;;;;;;;6.33;2.30;;;;;;;;;;4973165;28;20289;-60
2023/01/14 10:11:55;;;;;;;8.50;1.70;;;;;;;;;;4973202;28;20198;-58
2023/01/14 10:14:24;;;;;;;6.97;1.63;;;;;;;;;;4972696;28;20202;-59
2023/01/14 10:16:54;;;;;;;4.67;1.50;;;;;;;;;;4972339;28;20206;-60
2023/01/14 10:19:24;;;;;;;4.67;1.80;;;;;;;;;;4972144;28;20202;-61
2023/01/14 10:21:53;;;;;;;5.40;1.50;;;;;;;;;;4973067;28;20215;-61
2023/01/14 10:24:21;;;;;;;4.50;1.73;;;;;;;;;;4972861;28;20214;-59
2023/01/14 10:26:49;;;;;;;4.90;1.80;;;;;;;;;;4973398;28;20234;-60
2023/01/14 10:29:18;;;;;;;7.20;1.70;;;;;;;;;;4973769;28;20211;-61
2023/01/14 10:31:48;;;;;;;6.33;1.67;;;;;;;;;;4972235;28;20202;-61
2023/01/14 10:34:18;;;;;;;4.17;1.60;;;;;;;;;;4973764;28;20487;-61
2023/01/14 10:36:45;;;;;;;5.60;1.30;;;;;;;;;;4974345;28;20228;-60
2023/01/14 10:39:14;;;;;;;4.43;1.27;;;;;;;;;;4972492;28;20209;-61
2023/01/14 10:41:50;;;;;;;7.73;2.03;;;;;;;;;;4968529;28;20225;-59
2023/01/14 10:44:22;;;;;;;4.53;1.40;;;;;;;;;;4969828;28;20212;-61
2023/01/14 10:46:49;;;;;;;4.90;1.63;;;;;;;;;;4968778;28;20211;-60
2023/01/14 10:49:18;;;;;;;3.40;1.17;;;;;;;;;;4969797;28;20214;-58
2023/01/14 10:51:49;;;;;;;6.40;1.60;;;;;;;;;;4966635;28;20213;-60
2023/01/14 10:54:17;;;;;;;6.03;1.80;;;;;;;;;;4966185;28;20228;-57
2023/01/14 10:56:47;;;;;;;8.30;1.60;;;;;;;;;;4969923;28;20210;-60
2023/01/14 10:59:24;;;;;;;5.27;1.70;;;;;;;;;;4968012;28;20229;-58
2023/01/14 11:01:51;;;;;;;5.60;1.70;;;;;;;;;;4967552;28;20201;-59
2023/01/14 11:04:18;;;;;;;6.73;1.70;;;;;;;;;;4971416;28;20217;-60
2023/01/14 11:06:45;;;;;;;4.30;1.63;;;;;;;;;;4968598;28;20217;-59
2023/01/14 11:09:18;;;;;;;4.13;1.67;;;;;;;;;;4972069;28;20205;-59
2023/01/14 11:11:46;;;;;;;3.63;1.63;;;;;;;;;;4971739;28;20210;-59
2023/01/14 11:14:20;;;;;;;6.87;1.70;;;;;;;;;;4967504;28;20206;-60
2023/01/14 11:16:47;;;;;;;3.83;1.57;;;;;;;;;;4971082;28;20206;-59
2023/01/14 11:19:20;;;;;;;6.37;1.37;;;;;;;;;;4969628;28;20221;-61
2023/01/14 11:21:48;;;;;;;7.27;1.47;;;;;;;;;;4970902;28;20212;-61
2023/01/14 11:24:24;;;;;;;6.27;1.53;;;;;;;;;;4965826;28;20206;-60
2023/01/14 11:26:51;;;;;;;3.20;1.13;;;;;;;;;;4970741;28;20233;-61
2023/01/14 11:29:22;;;;;;;4.00;1.40;;;;;;;;;;4967786;28;20206;-61
2023/01/14 11:31:50;;;;;;;4.63;1.40;;;;;;;;;;4971485;28;20225;-61
2023/01/14 11:34:26;;;;;;;4.73;1.60;;;;;;;;;;4972290;28;20206;-61
2023/01/14 11:37:02;;;;;;;3.67;1.20;;;;;;;;;;4970883;28;20209;-60
2023/01/14 11:39:29;;;;;;;4.07;1.20;;;;;;;;;;4970502;28;20229;-59
2023/01/14 11:41:57;;;;;;;2.77;1.33;;;;;;;;;;4971499;28;20213;-60
2023/01/14 11:44:28;;;;;;;4.50;1.60;;;;;;;;;;4972635;28;20210;-61
2023/01/14 11:47:13;;;;;;;4.40;1.20;;;;;;;;;;4971383;28;20241;-60
2023/01/14 11:49:40;;;;;;;3.70;1.20;;;;;;;;;;4971915;28;20222;-60
2023/01/14 11:52:08;;;;;;;4.37;1.43;;;;;;;;;;4970021;28;20218;-60
2023/01/14 11:54:37;;;;;;;8.43;1.53;;;;;;;;;;4964441;28;20233;-60
2023/01/14 11:57:05;;;;;;;2.43;1.30;;;;;;;;;;4971679;28;20202;-57
2023/01/14 11:59:34;;;;;;;4.57;1.53;;;;;;;;;;4966741;28;20233;-60
2023/01/14 12:02:04;;;;;;;7.70;1.43;;;;;;;;;;4965913;28;20213;-60
2023/01/14 12:04:35;;;;;;;3.37;1.40;;;;;;;;;;4970205;28;20241;-59
2023/01/14 12:07:05;;;;;;;3.40;1.30;;;;;;;;;;4969347;28;20221;-58
2023/01/14 12:09:36;;;;;;;2.63;1.23;;;;;;;;;;4965035;28;20210;-58
2023/01/14 12:12:05;;;;;;;6.93;1.70;;;;;;;;;;4969560;28;20225;-61
2023/01/14 12:17:24;;;;;;;4.93;1.30;;;;;;;;;;4967569;28;20249;-60
2023/01/14 12:19:53;;;;;;;3.00;1.10;;;;;;;;;;4967491;28;20201;-56
2023/01/14 12:22:23;;;;;;;7.40;1.23;;;;;;;;;;4968483;28;20211;-59
2023/01/14 12:24:58;;;;;;;3.63;1.43;;;;;;;;;;4964042;28;20244;-58
2023/01/14 12:27:45;;;;;;;7.90;1.70;;;;;;;;;;4969247;28;20240;-56
2023/01/14 12:30:20;;;;;;;4.23;1.67;;;;;;;;;;4968659;28;20202;-59
2023/01/14 12:32:50;;;;;;;3.47;1.30;;;;;;;;;;4970124;28;20206;-61
2023/01/14 12:35:19;;;;;;;3.03;1.20;;;;;;;;;;4966876;28;20309;-60
2023/01/14 12:37:51;;;;;;;3.47;1.50;;;;;;;;;;4970677;28;20226;-61
2023/01/14 12:45:53;;;;;;;3.70;1.73;;;;;;;;;;5007185;28;20200;-60
2023/01/14 12:48:22;;;;;;;4.17;1.63;;;;;;;;;;5007350;28;20201;-59
2023/01/14 12:50:52;;;;;;;4.23;1.63;;;;;;;;;;5012109;28;20205;-60
2023/01/14 12:53:21;;;;;;;5.33;1.53;;;;;;;;;;5007852;28;20208;-60
2023/01/14 12:55:50;;;;;;;4.27;1.70;;;;;;;;;;5010989;28;20207;-60
2023/01/14 12:58:19;;;;;;;5.97;2.00;;;;;;;;;;5007643;28;20223;-61
2023/01/14 13:00:50;;;;;;;3.03;2.07;;;;;;;;;;5012153;28;20292;-60
2023/01/14 13:03:21;;;;;;;3.83;1.37;;;;;;;;;;5012390;28;20205;-59
2023/01/14 13:05:49;;;;;;;3.23;1.37;;;;;;;;;;5010389;28;20215;-60
2023/01/14 13:08:22;;;;;;;2.13;1.30;;;;;;;;;;5010450;28;20201;-61
2023/01/14 13:10:57;;;;;;;3.27;1.40;;;;;;;;;;5013762;28;20208;-60
2023/01/14 13:13:25;;;;;;;4.10;1.43;;;;;;;;;;5010055;28;20211;-59
2023/01/14 13:15:52;;;;;;;3.40;1.20;;;;;;;;;;5005936;28;20200;-59
2023/01/14 13:18:38;;;;;;;2.93;1.10;;;;;;;;;;5008983;28;20221;-59
2023/01/14 13:21:07;;;;;;;3.83;1.30;;;;;;;;;;5008949;28;20332;-61
2023/01/14 13:23:54;;;;;;;2.33;1.20;;;;;;;;;;5008676;28;20211;-60
2023/01/14 13:26:22;;;;;;;4.97;1.33;;;;;;;;;;5009772;28;20201;-59
2023/01/14 13:29:19;;;;;;;3.97;1.47;;;;;;;;;;5006216;28;20197;-58
2023/01/14 13:31:46;;;;;;;2.07;1.20;;;;;;;;;;5005344;28;20316;-60
2023/01/14 13:34:36;;;;;;;1.63;1.10;;;;;;;;;;5010118;28;20315;-60
2023/01/14 13:37:21;;;;;;;2.63;1.07;;;;;;;;;;5012063;28;20216;-60
2023/01/14 13:39:51;;;;;;;3.20;1.27;;;;;;;;;;4994957;28;20311;-61
2023/01/14 13:42:24;;;;;;;4.30;1.17;;;;;;;;;;5012179;28;20300;-60
2023/01/14 13:44:52;;;;;;;4.47;1.50;;;;;;;;;;5010392;28;20212;-59
2023/01/14 13:47:20;;;;;;;2.87;1.30;;;;;;;;;;5008905;28;20259;-58
2023/01/14 13:49:53;;;;;;;2.87;1.30;;;;;;;;;;5009831;28;20201;-60
2023/01/14 13:52:23;;;;;;;1.80;1.10;;;;;;;;;;5012815;28;20201;-59
2023/01/14 13:54:56;;;;;;;3.50;1.30;;;;;;;;;;5003486;28;20223;-57
2023/01/14 13:57:25;;;;;;;3.73;1.20;;;;;;;;;;5008192;28;20213;-60
2023/01/14 13:59:55;;;;;;;2.87;1.10;;;;;;;;;;5007096;28;20635;-60
2023/01/14 14:02:41;;;;;;;2.87;1.03;;;;;;;;;;5009293;28;20211;-60
2023/01/14 14:05:16;;;;;;;4.63;1.00;;;;;;;;;;5009468;28;20291;-59
2023/01/14 14:07:59;;;;;;;4.03;1.83;;;;;;;;;;5007091;28;20201;-59
2023/01/14 14:10:30;;;;;;;4.27;2.30;;;;;;;;;;4996266;28;20200;-59
2023/01/14 14:15:46;;;;;;;3.17;1.60;;;;;;;;;;5011670;28;20224;-61
2023/01/14 14:18:21;;;;;;;1.33;1.00;;;;;;;;;;5009772;28;20212;-60
2023/01/14 14:20:49;;;;;;;1.63;0.90;;;;;;;;;;5008281;28;20231;-61
2023/01/14 14:23:21;;;;;;;3.77;1.43;;;;;;;;;;5011708;28;20268;-59
2023/01/14 14:25:50;;;;;;;2.43;1.07;;;;;;;;;;5010006;28;20201;-59
2023/01/14 14:28:20;;;;;;;2.63;1.20;;;;;;;;;;5006951;28;20228;-59
2023/01/14 14:30:50;;;;;;;2.40;0.90;;;;;;;;;;5004754;28;20205;-60
2023/01/14 14:33:30;;;;;;;1.50;1.00;;;;;;;;;;5007999;28;20197;-60
2023/01/14 14:35:57;;;;;;;1.60;1.17;;;;;;;;;;5011026;28;20228;-60
2023/01/14 14:38:26;;;;;;;2.73;1.27;;;;;;;;;;5005284;28;20217;-56
2023/01/14 14:40:54;;;;;;;4.57;1.50;;;;;;;;;;5004057;28;20205;-60
2023/01/14 14:43:25;;;;;;;2.90;1.20;;;;;;;;;;5003501;28;20201;-58
2023/01/14 14:46:00;;;;;;;3.27;1.30;;;;;;;;;;5007876;28;20208;-60
2023/01/14 14:48:28;;;;;;;3.03;1.13;;;;;;;;;;5002600;28;20250;-57
2023/01/14 14:50:55;;;;;;;6.50;1.63;;;;;;;;;;5008153;28;20207;-59
2023/01/14 14:53:30;;;;;;;3.97;2.10;;;;;;;;;;5009481;28;20208;-60
2023/01/14 14:55:59;;;;;;;2.97;1.30;;;;;;;;;;5005201;28;20216;-60
2023/01/14 14:58:27;;;;;;;3.27;1.33;;;;;;;;;;5012484;28;20213;-59
2023/01/14 15:00:55;;;;;;;3.63;1.30;;;;;;;;;;5010777;28;20216;-63
2023/01/14 15:03:23;;;;;;;3.43;1.53;;;;;;;;;;5012034;28;20207;-60
2023/01/14 15:05:51;;;;;;;2.03;1.03;;;;;;;;;;5012547;28;20209;-61
2023/01/14 15:08:23;;;;;;;1.53;0.97;;;;;;;;;;5010655;28;20205;-60
2023/01/14 15:10:50;;;;;;;4.00;1.70;;;;;;;;;;5013316;28;20212;-61
2023/01/14 15:13:21;;;;;;;3.30;1.00;;;;;;;;;;5012888;28;20204;-60
2023/01/14 15:16:03;;;;;;;2.23;1.10;;;;;;;;;;5012677;28;20215;-59
2023/01/14 15:18:32;;;;;;;4.00;1.20;;;;;;;;;;5009262;28;20211;-60
2023/01/14 15:20:59;;;;;;;1.43;1.00;;;;;;;;;;5010990;28;20213;-60
2023/01/14 15:23:27;;;;;;;2.67;1.20;;;;;;;;;;5012638;28;20201;-60
2023/01/14 15:25:54;;;;;;;2.40;1.10;;;;;;;;;;5012739;28;20201;-61
2023/01/14 15:28:23;;;;;;;5.70;1.10;;;;;;;;;;5009941;28;20228;-60
2023/01/14 15:30:57;;;;;;;2.20;1.00;;;;;;;;;;5012428;28;20209;-60
2023/01/14 15:33:31;;;;;;;3.23;1.03;;;;;;;;;;5012348;28;20219;-60